sensor_id;sensor_type;location;lat;lon;timestamp;temperature;humidity
75769;DHT22;64379;48.888;8.330;2024-02-28T00:00:37;6.60;76.20
75769;DHT22;64379;48.888;8.330;2024-02-28T00:03:03;6.60;76.10
75769;DHT22;64379;48.888;8.330;2024-02-28T00:05:29;6.50;76.20
75769;DHT22;64379;48.888;8.330;2024-02-28T00:07:54;6.50;76.40
75769;DHT22;64379;48.888;8.330;2024-02-28T00:10:20;6.40;76.60
75769;DHT22;64379;48.888;8.330;2024-02-28T00:12:46;6.30;76.70
75769;DHT22;64379;48.888;8.330;2024-02-28T00:15:11;6.20;76.70
75769;DHT22;64379;48.888;8.330;2024-02-28T00:17:40;6.10;77.10
75769;DHT22;64379;48.888;8.330;2024-02-28T00:20:07;6.00;77.50
75769;DHT22;64379;48.888;8.330;2024-02-28T00:22:35;5.90;77.70
75769;DHT22;64379;48.888;8.330;2024-02-28T00:25:01;5.90;77.90
75769;DHT22;64379;48.888;8.330;2024-02-28T00:27:26;5.90;78.10
75769;DHT22;64379;48.888;8.330;2024-02-28T00:29:52;5.90;78.20
75769;DHT22;64379;48.888;8.330;2024-02-28T00:32:17;5.90;78.20
75769;DHT22;64379;48.888;8.330;2024-02-28T00:34:43;6.00;78.10
75769;DHT22;64379;48.888;8.330;2024-02-28T00:37:09;6.00;77.80
75769;DHT22;64379;48.888;8.330;2024-02-28T00:39:35;6.00;77.50
75769;DHT22;64379;48.888;8.330;2024-02-28T00:42:00;6.00;77.40
75769;DHT22;64379;48.888;8.330;2024-02-28T00:44:26;5.90;77.50
75769;DHT22;64379;48.888;8.330;2024-02-28T00:46:51;5.90;77.80
75769;DHT22;64379;48.888;8.330;2024-02-28T00:49:17;5.80;78.30
75769;DHT22;64379;48.888;8.330;2024-02-28T00:51:42;5.80;78.60
75769;DHT22;64379;48.888;8.330;2024-02-28T00:54:08;5.80;78.60
75769;DHT22;64379;48.888;8.330;2024-02-28T00:56:34;5.90;78.40
75769;DHT22;64379;48.888;8.330;2024-02-28T00:58:59;5.90;78.30
75769;DHT22;64379;48.888;8.330;2024-02-28T01:01:25;5.90;78.30
75769;DHT22;64379;48.888;8.330;2024-02-28T01:03:51;5.90;78.10
75769;DHT22;64379;48.888;8.330;2024-02-28T01:06:16;5.90;78.00
75769;DHT22;64379;48.888;8.330;2024-02-28T01:08:42;6.00;77.90
75769;DHT22;64379;48.888;8.330;2024-02-28T01:11:08;6.00;77.80
75769;DHT22;64379;48.888;8.330;2024-02-28T01:13:33;5.90;77.80
75769;DHT22;64379;48.888;8.330;2024-02-28T01:15:59;5.80;78.00
75769;DHT22;64379;48.888;8.330;2024-02-28T01:18:25;5.80;78.20
75769;DHT22;64379;48.888;8.330;2024-02-28T01:20:51;5.70;78.50
75769;DHT22;64379;48.888;8.330;2024-02-28T01:23:19;5.50;79.00
75769;DHT22;64379;48.888;8.330;2024-02-28T01:25:44;5.40;79.20
75769;DHT22;64379;48.888;8.330;2024-02-28T01:28:10;5.30;79.50
75769;DHT22;64379;48.888;8.330;2024-02-28T01:30:35;5.20;80.00
75769;DHT22;64379;48.888;8.330;2024-02-28T01:33:01;5.10;80.20
75769;DHT22;64379;48.888;8.330;2024-02-28T01:35:26;5.10;80.30
75769;DHT22;64379;48.888;8.330;2024-02-28T01:37:53;5.00;80.50
75769;DHT22;64379;48.888;8.330;2024-02-28T01:40:19;5.00;80.60
75769;DHT22;64379;48.888;8.330;2024-02-28T01:42:44;5.00;80.60
75769;DHT22;64379;48.888;8.330;2024-02-28T01:45:13;4.90;80.70
75769;DHT22;64379;48.888;8.330;2024-02-28T01:47:39;4.80;80.80
75769;DHT22;64379;48.888;8.330;2024-02-28T01:50:05;4.70;81.00
75769;DHT22;64379;48.888;8.330;2024-02-28T01:52:31;4.70;81.00
75769;DHT22;64379;48.888;8.330;2024-02-28T01:54:57;4.70;81.00
75769;DHT22;64379;48.888;8.330;2024-02-28T01:57:22;4.70;81.00
75769;DHT22;64379;48.888;8.330;2024-02-28T01:59:48;4.60;81.20
75769;DHT22;64379;48.888;8.330;2024-02-28T02:02:14;4.50;81.50
75769;DHT22;64379;48.888;8.330;2024-02-28T02:04:39;4.50;81.70
75769;DHT22;64379;48.888;8.330;2024-02-28T02:07:06;4.40;82.10
75769;DHT22;64379;48.888;8.330;2024-02-28T02:09:33;4.30;82.50
75769;DHT22;64379;48.888;8.330;2024-02-28T02:11:59;4.30;82.80
75769;DHT22;64379;48.888;8.330;2024-02-28T02:14:25;4.20;82.70
75769;DHT22;64379;48.888;8.330;2024-02-28T02:16:50;4.20;82.90
75769;DHT22;64379;48.888;8.330;2024-02-28T02:19:16;4.20;83.20
75769;DHT22;64379;48.888;8.330;2024-02-28T02:21:49;4.20;83.30
75769;DHT22;64379;48.888;8.330;2024-02-28T02:24:16;4.10;83.30
75769;DHT22;64379;48.888;8.330;2024-02-28T02:26:41;4.10;83.30
75769;DHT22;64379;48.888;8.330;2024-02-28T02:29:10;4.00;83.20
75769;DHT22;64379;48.888;8.330;2024-02-28T02:31:35;4.00;83.30
75769;DHT22;64379;48.888;8.330;2024-02-28T02:34:01;3.90;83.20
75769;DHT22;64379;48.888;8.330;2024-02-28T02:36:27;3.90;83.30
75769;DHT22;64379;48.888;8.330;2024-02-28T02:38:53;3.80;83.50
75769;DHT22;64379;48.888;8.330;2024-02-28T02:41:19;3.70;83.50
75769;DHT22;64379;48.888;8.330;2024-02-28T02:43:44;3.60;83.60
75769;DHT22;64379;48.888;8.330;2024-02-28T02:46:10;3.50;83.70
75769;DHT22;64379;48.888;8.330;2024-02-28T02:48:35;3.50;84.00
75769;DHT22;64379;48.888;8.330;2024-02-28T02:51:01;3.50;84.00
75769;DHT22;64379;48.888;8.330;2024-02-28T02:53:27;3.50;84.20
75769;DHT22;64379;48.888;8.330;2024-02-28T02:55:53;3.50;84.70
75769;DHT22;64379;48.888;8.330;2024-02-28T02:58:19;3.60;84.70
75769;DHT22;64379;48.888;8.330;2024-02-28T03:00:44;3.70;84.50
75769;DHT22;64379;48.888;8.330;2024-02-28T03:03:10;3.90;84.20
75769;DHT22;64379;48.888;8.330;2024-02-28T03:05:36;3.90;83.80
75769;DHT22;64379;48.888;8.330;2024-02-28T03:08:01;4.00;83.50
75769;DHT22;64379;48.888;8.330;2024-02-28T03:10:27;4.00;83.20
75769;DHT22;64379;48.888;8.330;2024-02-28T03:12:54;4.00;82.80
75769;DHT22;64379;48.888;8.330;2024-02-28T03:15:20;4.00;82.70
75769;DHT22;64379;48.888;8.330;2024-02-28T03:17:45;4.10;82.60
75769;DHT22;64379;48.888;8.330;2024-02-28T03:20:11;4.10;82.30
75769;DHT22;64379;48.888;8.330;2024-02-28T03:22:39;4.00;82.40
75769;DHT22;64379;48.888;8.330;2024-02-28T03:25:05;4.00;82.60
75769;DHT22;64379;48.888;8.330;2024-02-28T03:27:30;4.00;82.70
75769;DHT22;64379;48.888;8.330;2024-02-28T03:29:56;4.00;82.90
75769;DHT22;64379;48.888;8.330;2024-02-28T03:32:21;4.00;82.90
75769;DHT22;64379;48.888;8.330;2024-02-28T03:34:47;4.00;82.90
75769;DHT22;64379;48.888;8.330;2024-02-28T03:37:13;4.00;83.00
75769;DHT22;64379;48.888;8.330;2024-02-28T03:39:39;4.00;83.00
75769;DHT22;64379;48.888;8.330;2024-02-28T03:42:04;4.00;83.00
75769;DHT22;64379;48.888;8.330;2024-02-28T03:44:30;4.00;83.00
75769;DHT22;64379;48.888;8.330;2024-02-28T03:46:56;4.10;83.00
75769;DHT22;64379;48.888;8.330;2024-02-28T03:49:21;4.10;83.10
75769;DHT22;64379;48.888;8.330;2024-02-28T03:51:47;4.10;83.10
75769;DHT22;64379;48.888;8.330;2024-02-28T03:54:12;4.10;83.10
75769;DHT22;64379;48.888;8.330;2024-02-28T03:56:38;4.10;83.20
75769;DHT22;64379;48.888;8.330;2024-02-28T03:59:03;4.10;83.00
75769;DHT22;64379;48.888;8.330;2024-02-28T04:01:30;4.10;82.90
75769;DHT22;64379;48.888;8.330;2024-02-28T04:03:55;4.00;82.90
75769;DHT22;64379;48.888;8.330;2024-02-28T04:06:21;4.00;83.10
75769;DHT22;64379;48.888;8.330;2024-02-28T04:08:47;3.90;83.20
75769;DHT22;64379;48.888;8.330;2024-02-28T04:11:13;3.90;83.40
75769;DHT22;64379;48.888;8.330;2024-02-28T04:13:39;3.90;83.50
75769;DHT22;64379;48.888;8.330;2024-02-28T04:16:06;3.90;83.60
75769;DHT22;64379;48.888;8.330;2024-02-28T04:18:32;3.90;83.70
75769;DHT22;64379;48.888;8.330;2024-02-28T04:20:58;4.00;83.50
75769;DHT22;64379;48.888;8.330;2024-02-28T04:23:24;4.00;83.40
75769;DHT22;64379;48.888;8.330;2024-02-28T04:25:50;4.00;83.30
75769;DHT22;64379;48.888;8.330;2024-02-28T04:28:16;4.00;83.40
75769;DHT22;64379;48.888;8.330;2024-02-28T04:30:41;4.00;83.40
75769;DHT22;64379;48.888;8.330;2024-02-28T04:33:07;4.10;83.50
75769;DHT22;64379;48.888;8.330;2024-02-28T04:35:32;4.10;83.50
75769;DHT22;64379;48.888;8.330;2024-02-28T04:37:58;4.20;83.20
75769;DHT22;64379;48.888;8.330;2024-02-28T04:40:24;4.20;83.10
75769;DHT22;64379;48.888;8.330;2024-02-28T04:42:49;4.20;83.20
75769;DHT22;64379;48.888;8.330;2024-02-28T04:45:15;4.20;83.20
75769;DHT22;64379;48.888;8.330;2024-02-28T04:47:41;4.20;83.10
75769;DHT22;64379;48.888;8.330;2024-02-28T04:50:06;4.20;82.90
75769;DHT22;64379;48.888;8.330;2024-02-28T04:52:33;4.30;82.90
75769;DHT22;64379;48.888;8.330;2024-02-28T04:54:58;4.30;82.80
75769;DHT22;64379;48.888;8.330;2024-02-28T04:57:24;4.30;83.00
75769;DHT22;64379;48.888;8.330;2024-02-28T04:59:50;4.30;83.00
75769;DHT22;64379;48.888;8.330;2024-02-28T05:02:15;4.30;82.70
75769;DHT22;64379;48.888;8.330;2024-02-28T05:04:42;4.30;83.00
75769;DHT22;64379;48.888;8.330;2024-02-28T05:07:08;4.40;83.00
75769;DHT22;64379;48.888;8.330;2024-02-28T05:09:33;4.40;82.90
75769;DHT22;64379;48.888;8.330;2024-02-28T05:11:59;4.30;82.70
75769;DHT22;64379;48.888;8.330;2024-02-28T05:14:25;4.30;82.60
75769;DHT22;64379;48.888;8.330;2024-02-28T05:16:50;4.30;82.60
75769;DHT22;64379;48.888;8.330;2024-02-28T05:19:16;4.20;82.70
75769;DHT22;64379;48.888;8.330;2024-02-28T05:21:45;4.20;82.90
75769;DHT22;64379;48.888;8.330;2024-02-28T05:24:11;4.20;83.00
75769;DHT22;64379;48.888;8.330;2024-02-28T05:26:37;4.30;83.10
75769;DHT22;64379;48.888;8.330;2024-02-28T05:29:04;4.40;82.80
75769;DHT22;64379;48.888;8.330;2024-02-28T05:31:30;4.20;82.60
75769;DHT22;64379;48.888;8.330;2024-02-28T05:33:59;4.00;83.00
75769;DHT22;64379;48.888;8.330;2024-02-28T05:36:26;4.00;83.40
75769;DHT22;64379;48.888;8.330;2024-02-28T05:38:54;3.90;83.70
75769;DHT22;64379;48.888;8.330;2024-02-28T05:41:20;3.90;84.00
75769;DHT22;64379;48.888;8.330;2024-02-28T05:43:46;3.90;83.90
75769;DHT22;64379;48.888;8.330;2024-02-28T05:46:12;3.90;83.90
75769;DHT22;64379;48.888;8.330;2024-02-28T05:48:38;3.70;84.00
75769;DHT22;64379;48.888;8.330;2024-02-28T05:51:05;3.70;84.20
75769;DHT22;64379;48.888;8.330;2024-02-28T05:53:31;3.60;84.40
75769;DHT22;64379;48.888;8.330;2024-02-28T05:56:04;3.50;84.80
75769;DHT22;64379;48.888;8.330;2024-02-28T05:58:30;3.50;85.00
75769;DHT22;64379;48.888;8.330;2024-02-28T06:00:56;3.30;85.50
75769;DHT22;64379;48.888;8.330;2024-02-28T06:03:22;3.30;85.90
75769;DHT22;64379;48.888;8.330;2024-02-28T06:05:47;3.30;86.30
75769;DHT22;64379;48.888;8.330;2024-02-28T06:08:13;3.30;86.30
75769;DHT22;64379;48.888;8.330;2024-02-28T06:10:39;3.40;86.10
75769;DHT22;64379;48.888;8.330;2024-02-28T06:13:07;3.40;85.90
75769;DHT22;64379;48.888;8.330;2024-02-28T06:15:33;3.40;85.70
75769;DHT22;64379;48.888;8.330;2024-02-28T06:17:59;3.30;85.50
75769;DHT22;64379;48.888;8.330;2024-02-28T06:20:26;3.30;85.60
75769;DHT22;64379;48.888;8.330;2024-02-28T06:22:52;3.30;85.70
75769;DHT22;64379;48.888;8.330;2024-02-28T06:25:17;3.10;85.90
75769;DHT22;64379;48.888;8.330;2024-02-28T06:27:45;3.00;86.10
75769;DHT22;64379;48.888;8.330;2024-02-28T06:30:11;3.00;86.30
75769;DHT22;64379;48.888;8.330;2024-02-28T06:32:40;2.90;86.50
75769;DHT22;64379;48.888;8.330;2024-02-28T06:35:08;2.90;86.90
75769;DHT22;64379;48.888;8.330;2024-02-28T06:37:34;2.80;87.20
75769;DHT22;64379;48.888;8.330;2024-02-28T06:40:01;2.80;87.50
75769;DHT22;64379;48.888;8.330;2024-02-28T06:42:27;2.80;87.70
75769;DHT22;64379;48.888;8.330;2024-02-28T06:44:54;2.80;87.90
75769;DHT22;64379;48.888;8.330;2024-02-28T06:47:19;2.80;88.00
75769;DHT22;64379;48.888;8.330;2024-02-28T06:49:45;2.80;87.80
75769;DHT22;64379;48.888;8.330;2024-02-28T06:52:11;2.80;87.60
75769;DHT22;64379;48.888;8.330;2024-02-28T06:54:37;2.80;87.40
75769;DHT22;64379;48.888;8.330;2024-02-28T06:57:03;2.80;87.20
75769;DHT22;64379;48.888;8.330;2024-02-28T06:59:28;2.90;87.10
75769;DHT22;64379;48.888;8.330;2024-02-28T07:01:54;3.00;87.00
75769;DHT22;64379;48.888;8.330;2024-02-28T07:04:20;3.00;86.90
75769;DHT22;64379;48.888;8.330;2024-02-28T07:06:46;3.10;86.70
75769;DHT22;64379;48.888;8.330;2024-02-28T07:09:11;3.10;86.50
75769;DHT22;64379;48.888;8.330;2024-02-28T07:11:38;3.10;86.30
75769;DHT22;64379;48.888;8.330;2024-02-28T07:14:04;3.10;86.10
75769;DHT22;64379;48.888;8.330;2024-02-28T07:16:30;2.90;85.90
75769;DHT22;64379;48.888;8.330;2024-02-28T07:18:57;2.90;86.30
75769;DHT22;64379;48.888;8.330;2024-02-28T07:21:23;3.10;86.40
75769;DHT22;64379;48.888;8.330;2024-02-28T07:23:49;3.10;86.20
75769;DHT22;64379;48.888;8.330;2024-02-28T07:26:18;3.30;85.90
75769;DHT22;64379;48.888;8.330;2024-02-28T07:28:43;3.40;85.60
75769;DHT22;64379;48.888;8.330;2024-02-28T07:31:18;3.50;85.20
75769;DHT22;64379;48.888;8.330;2024-02-28T07:33:44;3.90;84.90
75769;DHT22;64379;48.888;8.330;2024-02-28T07:36:10;4.20;83.50
75769;DHT22;64379;48.888;8.330;2024-02-28T07:38:36;4.50;82.30
75769;DHT22;64379;48.888;8.330;2024-02-28T07:41:02;4.70;80.90
75769;DHT22;64379;48.888;8.330;2024-02-28T07:43:28;4.80;80.40
75769;DHT22;64379;48.888;8.330;2024-02-28T07:45:54;4.90;80.10
75769;DHT22;64379;48.888;8.330;2024-02-28T07:48:19;5.30;79.90
75769;DHT22;64379;48.888;8.330;2024-02-28T07:50:45;5.70;78.20
75769;DHT22;64379;48.888;8.330;2024-02-28T07:53:11;5.80;77.40
75769;DHT22;64379;48.888;8.330;2024-02-28T07:55:37;5.70;77.60
75769;DHT22;64379;48.888;8.330;2024-02-28T07:58:04;5.70;77.30
75769;DHT22;64379;48.888;8.330;2024-02-28T08:00:31;5.70;76.60
75769;DHT22;64379;48.888;8.330;2024-02-28T08:02:59;5.50;77.50
75769;DHT22;64379;48.888;8.330;2024-02-28T08:05:24;5.50;78.60
75769;DHT22;64379;48.888;8.330;2024-02-28T08:07:50;5.40;78.00
75769;DHT22;64379;48.888;8.330;2024-02-28T08:10:16;5.50;79.00
75769;DHT22;64379;48.888;8.330;2024-02-28T08:12:41;5.50;78.60
75769;DHT22;64379;48.888;8.330;2024-02-28T08:15:07;5.30;78.30
75769;DHT22;64379;48.888;8.330;2024-02-28T08:17:33;5.00;79.40
75769;DHT22;64379;48.888;8.330;2024-02-28T08:19:59;5.00;80.00
75769;DHT22;64379;48.888;8.330;2024-02-28T08:22:25;5.20;79.40
75769;DHT22;64379;48.888;8.330;2024-02-28T08:24:53;5.30;78.80
75769;DHT22;64379;48.888;8.330;2024-02-28T08:27:19;5.00;79.60
75769;DHT22;64379;48.888;8.330;2024-02-28T08:29:46;5.30;79.00
75769;DHT22;64379;48.888;8.330;2024-02-28T08:32:13;5.30;78.50
75769;DHT22;64379;48.888;8.330;2024-02-28T08:34:38;5.60;77.90
75769;DHT22;64379;48.888;8.330;2024-02-28T08:37:04;5.90;77.20
75769;DHT22;64379;48.888;8.330;2024-02-28T08:39:30;6.00;76.60
75769;DHT22;64379;48.888;8.330;2024-02-28T08:41:55;6.20;76.30
75769;DHT22;64379;48.888;8.330;2024-02-28T08:44:21;6.30;75.80
75769;DHT22;64379;48.888;8.330;2024-02-28T08:46:47;6.40;74.90
75769;DHT22;64379;48.888;8.330;2024-02-28T08:49:14;6.50;74.70
75769;DHT22;64379;48.888;8.330;2024-02-28T08:51:39;6.40;74.50
75769;DHT22;64379;48.888;8.330;2024-02-28T08:54:06;6.70;74.50
75769;DHT22;64379;48.888;8.330;2024-02-28T08:56:31;6.80;73.80
75769;DHT22;64379;48.888;8.330;2024-02-28T08:58:57;6.70;73.50
75769;DHT22;64379;48.888;8.330;2024-02-28T09:01:22;6.70;73.90
75769;DHT22;64379;48.888;8.330;2024-02-28T09:03:48;6.80;73.40
75769;DHT22;64379;48.888;8.330;2024-02-28T09:06:14;7.00;72.90
75769;DHT22;64379;48.888;8.330;2024-02-28T09:08:39;7.20;72.20
75769;DHT22;64379;48.888;8.330;2024-02-28T09:11:05;7.00;72.60
75769;DHT22;64379;48.888;8.330;2024-02-28T09:13:31;7.00;73.10
75769;DHT22;64379;48.888;8.330;2024-02-28T09:15:57;7.30;72.10
75769;DHT22;64379;48.888;8.330;2024-02-28T09:18:23;7.00;72.50
75769;DHT22;64379;48.888;8.330;2024-02-28T09:20:49;6.90;73.10
75769;DHT22;64379;48.888;8.330;2024-02-28T09:23:14;6.90;73.40
75769;DHT22;64379;48.888;8.330;2024-02-28T09:25:40;6.80;73.90
75769;DHT22;64379;48.888;8.330;2024-02-28T09:28:06;6.80;73.70
75769;DHT22;64379;48.888;8.330;2024-02-28T09:30:31;6.90;73.70
75769;DHT22;64379;48.888;8.330;2024-02-28T09:32:57;7.10;73.70
75769;DHT22;64379;48.888;8.330;2024-02-28T09:35:22;7.40;72.30
75769;DHT22;64379;48.888;8.330;2024-02-28T09:37:48;7.40;72.10
75769;DHT22;64379;48.888;8.330;2024-02-28T09:40:14;7.40;71.90
75769;DHT22;64379;48.888;8.330;2024-02-28T09:42:39;7.50;72.30
75769;DHT22;64379;48.888;8.330;2024-02-28T09:45:09;7.40;72.20
75769;DHT22;64379;48.888;8.330;2024-02-28T09:47:35;7.50;71.80
75769;DHT22;64379;48.888;8.330;2024-02-28T09:50:01;7.70;71.70
75769;DHT22;64379;48.888;8.330;2024-02-28T09:52:28;8.00;70.70
75769;DHT22;64379;48.888;8.330;2024-02-28T09:54:53;8.20;70.20
75769;DHT22;64379;48.888;8.330;2024-02-28T09:57:19;8.20;70.10
75769;DHT22;64379;48.888;8.330;2024-02-28T09:59:46;8.20;70.50
75769;DHT22;64379;48.888;8.330;2024-02-28T10:02:15;8.30;69.60
75769;DHT22;64379;48.888;8.330;2024-02-28T10:04:42;8.50;69.20
75769;DHT22;64379;48.888;8.330;2024-02-28T10:07:14;8.40;69.10
75769;DHT22;64379;48.888;8.330;2024-02-28T10:09:41;8.60;69.20
75769;DHT22;64379;48.888;8.330;2024-02-28T10:12:06;8.70;68.50
75769;DHT22;64379;48.888;8.330;2024-02-28T10:14:32;8.60;68.00
75769;DHT22;64379;48.888;8.330;2024-02-28T10:16:58;8.40;68.40
75769;DHT22;64379;48.888;8.330;2024-02-28T10:19:23;8.40;68.00
75769;DHT22;64379;48.888;8.330;2024-02-28T10:21:50;8.40;69.10
75769;DHT22;64379;48.888;8.330;2024-02-28T10:24:16;8.80;68.00
75769;DHT22;64379;48.888;8.330;2024-02-28T10:26:43;9.00;67.70
75769;DHT22;64379;48.888;8.330;2024-02-28T10:29:09;9.10;66.60
75769;DHT22;64379;48.888;8.330;2024-02-28T10:31:34;9.10;67.00
75769;DHT22;64379;48.888;8.330;2024-02-28T10:34:02;9.50;66.20
75769;DHT22;64379;48.888;8.330;2024-02-28T10:36:32;9.80;65.50
75769;DHT22;64379;48.888;8.330;2024-02-28T10:38:57;10.00;64.40
75769;DHT22;64379;48.888;8.330;2024-02-28T10:41:25;10.10;63.20
75769;DHT22;64379;48.888;8.330;2024-02-28T10:43:51;9.50;64.70
75769;DHT22;64379;48.888;8.330;2024-02-28T10:46:20;9.30;64.80
75769;DHT22;64379;48.888;8.330;2024-02-28T10:48:46;9.40;65.30
75769;DHT22;64379;48.888;8.330;2024-02-28T10:51:18;9.30;64.70
75769;DHT22;64379;48.888;8.330;2024-02-28T10:53:47;9.20;65.00
75769;DHT22;64379;48.888;8.330;2024-02-28T10:56:16;8.90;66.10
75769;DHT22;64379;48.888;8.330;2024-02-28T10:58:51;9.10;66.90
75769;DHT22;64379;48.888;8.330;2024-02-28T11:01:18;9.80;64.40
75769;DHT22;64379;48.888;8.330;2024-02-28T11:03:44;9.40;64.10
75769;DHT22;64379;48.888;8.330;2024-02-28T11:06:20;8.90;65.80
75769;DHT22;64379;48.888;8.330;2024-02-28T11:08:47;9.00;65.50
75769;DHT22;64379;48.888;8.330;2024-02-28T11:11:20;9.50;65.20
75769;DHT22;64379;48.888;8.330;2024-02-28T11:13:53;9.40;64.10
75769;DHT22;64379;48.888;8.330;2024-02-28T11:18:52;10.00;64.10
75769;DHT22;64379;48.888;8.330;2024-02-28T11:21:18;10.20;62.60
75769;DHT22;64379;48.888;8.330;2024-02-28T11:23:47;10.00;62.60
75769;DHT22;64379;48.888;8.330;2024-02-28T11:26:15;9.80;63.20
75769;DHT22;64379;48.888;8.330;2024-02-28T11:28:41;9.40;64.10
75769;DHT22;64379;48.888;8.330;2024-02-28T11:31:07;9.40;65.20
75769;DHT22;64379;48.888;8.330;2024-02-28T11:33:33;9.60;63.40
75769;DHT22;64379;48.888;8.330;2024-02-28T11:35:59;10.20;61.40
75769;DHT22;64379;48.888;8.330;2024-02-28T11:38:28;10.70;59.80
75769;DHT22;64379;48.888;8.330;2024-02-28T11:40:54;10.70;59.90
75769;DHT22;64379;48.888;8.330;2024-02-28T11:43:22;10.60;60.00
75769;DHT22;64379;48.888;8.330;2024-02-28T11:45:48;10.50;60.20
75769;DHT22;64379;48.888;8.330;2024-02-28T11:48:14;10.80;59.30
75769;DHT22;64379;48.888;8.330;2024-02-28T11:50:40;10.80;57.40
75769;DHT22;64379;48.888;8.330;2024-02-28T11:53:07;10.60;57.70
75769;DHT22;64379;48.888;8.330;2024-02-28T11:55:33;10.90;59.00
75769;DHT22;64379;48.888;8.330;2024-02-28T11:57:58;11.50;57.00
75769;DHT22;64379;48.888;8.330;2024-02-28T12:00:24;11.40;56.90
75769;DHT22;64379;48.888;8.330;2024-02-28T12:02:50;10.70;58.50
75769;DHT22;64379;48.888;8.330;2024-02-28T12:05:15;10.60;59.20
75769;DHT22;64379;48.888;8.330;2024-02-28T12:07:41;11.10;57.70
75769;DHT22;64379;48.888;8.330;2024-02-28T12:10:09;12.00;55.80
75769;DHT22;64379;48.888;8.330;2024-02-28T12:12:35;11.70;56.40
75769;DHT22;64379;48.888;8.330;2024-02-28T12:15:01;12.10;55.30
75769;DHT22;64379;48.888;8.330;2024-02-28T12:17:29;12.00;56.20
75769;DHT22;64379;48.888;8.330;2024-02-28T12:19:54;12.30;54.90
75769;DHT22;64379;48.888;8.330;2024-02-28T12:22:21;11.70;56.40
75769;DHT22;64379;48.888;8.330;2024-02-28T12:24:46;11.60;56.70
75769;DHT22;64379;48.888;8.330;2024-02-28T12:27:12;11.10;57.30
75769;DHT22;64379;48.888;8.330;2024-02-28T12:29:37;11.30;58.30
75769;DHT22;64379;48.888;8.330;2024-02-28T12:32:03;11.70;56.90
75769;DHT22;64379;48.888;8.330;2024-02-28T12:34:29;11.90;56.60
75769;DHT22;64379;48.888;8.330;2024-02-28T12:36:54;12.10;55.70
75769;DHT22;64379;48.888;8.330;2024-02-28T12:39:20;11.90;56.20
75769;DHT22;64379;48.888;8.330;2024-02-28T12:41:46;12.10;56.10
75769;DHT22;64379;48.888;8.330;2024-02-28T12:44:11;11.70;56.80
75769;DHT22;64379;48.888;8.330;2024-02-28T12:46:37;12.20;56.90
75769;DHT22;64379;48.888;8.330;2024-02-28T12:49:04;12.50;54.00
75769;DHT22;64379;48.888;8.330;2024-02-28T12:54:02;12.50;53.80
75769;DHT22;64379;48.888;8.330;2024-02-28T12:56:28;12.50;54.40
75769;DHT22;64379;48.888;8.330;2024-02-28T12:58:54;12.10;53.90
75769;DHT22;64379;48.888;8.330;2024-02-28T13:01:19;11.90;54.80
75769;DHT22;64379;48.888;8.330;2024-02-28T13:03:45;11.50;55.90
75769;DHT22;64379;48.888;8.330;2024-02-28T13:06:10;12.00;56.10
75769;DHT22;64379;48.888;8.330;2024-02-28T13:08:36;11.40;55.70
75769;DHT22;64379;48.888;8.330;2024-02-28T13:11:01;11.10;55.80
75769;DHT22;64379;48.888;8.330;2024-02-28T13:13:27;11.00;56.70
75769;DHT22;64379;48.888;8.330;2024-02-28T13:15:53;11.00;56.90
75769;DHT22;64379;48.888;8.330;2024-02-28T13:18:18;10.90;57.30
75769;DHT22;64379;48.888;8.330;2024-02-28T13:20:44;11.20;57.60
75769;DHT22;64379;48.888;8.330;2024-02-28T13:23:10;11.30;57.50
75769;DHT22;64379;48.888;8.330;2024-02-28T13:25:35;11.80;55.50
75769;DHT22;64379;48.888;8.330;2024-02-28T13:28:01;11.50;56.20
75769;DHT22;64379;48.888;8.330;2024-02-28T13:30:26;11.10;56.30
75769;DHT22;64379;48.888;8.330;2024-02-28T13:32:52;11.10;57.30
75769;DHT22;64379;48.888;8.330;2024-02-28T13:35:18;11.50;57.20
75769;DHT22;64379;48.888;8.330;2024-02-28T13:37:43;11.70;56.20
75769;DHT22;64379;48.888;8.330;2024-02-28T13:40:09;11.10;57.80
75769;DHT22;64379;48.888;8.330;2024-02-28T13:42:36;10.90;58.50
75769;DHT22;64379;48.888;8.330;2024-02-28T13:45:03;11.00;57.70
75769;DHT22;64379;48.888;8.330;2024-02-28T13:47:33;11.30;56.10
75769;DHT22;64379;48.888;8.330;2024-02-28T13:49:58;10.80;57.70
75769;DHT22;64379;48.888;8.330;2024-02-28T13:52:24;10.80;57.90
75769;DHT22;64379;48.888;8.330;2024-02-28T13:54:50;10.80;58.30
75769;DHT22;64379;48.888;8.330;2024-02-28T13:57:17;10.90;57.80
75769;DHT22;64379;48.888;8.330;2024-02-28T13:59:43;11.00;56.90
75769;DHT22;64379;48.888;8.330;2024-02-28T14:02:11;11.10;57.30
75769;DHT22;64379;48.888;8.330;2024-02-28T14:04:37;10.90;57.40
75769;DHT22;64379;48.888;8.330;2024-02-28T14:07:03;11.10;57.50
75769;DHT22;64379;48.888;8.330;2024-02-28T14:09:29;10.80;57.90
75769;DHT22;64379;48.888;8.330;2024-02-28T14:11:55;10.70;57.70
75769;DHT22;64379;48.888;8.330;2024-02-28T14:14:20;10.50;58.70
75769;DHT22;64379;48.888;8.330;2024-02-28T14:16:46;10.60;57.80
75769;DHT22;64379;48.888;8.330;2024-02-28T14:19:11;10.80;57.80
75769;DHT22;64379;48.888;8.330;2024-02-28T14:21:37;11.00;57.00
75769;DHT22;64379;48.888;8.330;2024-02-28T14:24:03;10.70;57.50
75769;DHT22;64379;48.888;8.330;2024-02-28T14:26:28;10.80;58.30
75769;DHT22;64379;48.888;8.330;2024-02-28T14:28:54;10.90;57.40
75769;DHT22;64379;48.888;8.330;2024-02-28T14:31:21;10.70;57.60
75769;DHT22;64379;48.888;8.330;2024-02-28T14:33:47;10.70;56.80
75769;DHT22;64379;48.888;8.330;2024-02-28T14:36:13;11.00;57.50
75769;DHT22;64379;48.888;8.330;2024-02-28T14:38:39;10.90;57.30
75769;DHT22;64379;48.888;8.330;2024-02-28T14:41:05;10.90;56.90
75769;DHT22;64379;48.888;8.330;2024-02-28T14:43:32;11.00;57.60
75769;DHT22;64379;48.888;8.330;2024-02-28T14:45:58;11.30;57.30
75769;DHT22;64379;48.888;8.330;2024-02-28T14:48:24;11.10;56.00
75769;DHT22;64379;48.888;8.330;2024-02-28T14:50:49;10.70;56.30
75769;DHT22;64379;48.888;8.330;2024-02-28T14:53:15;10.60;57.30
75769;DHT22;64379;48.888;8.330;2024-02-28T14:55:42;10.60;58.30
75769;DHT22;64379;48.888;8.330;2024-02-28T14:58:10;10.50;57.60
75769;DHT22;64379;48.888;8.330;2024-02-28T15:00:35;10.70;57.90
75769;DHT22;64379;48.888;8.330;2024-02-28T15:03:01;10.70;57.30
75769;DHT22;64379;48.888;8.330;2024-02-28T15:05:27;10.50;56.60
75769;DHT22;64379;48.888;8.330;2024-02-28T15:07:52;10.40;57.60
75769;DHT22;64379;48.888;8.330;2024-02-28T15:10:20;10.20;58.20
75769;DHT22;64379;48.888;8.330;2024-02-28T15:12:45;10.10;58.20
75769;DHT22;64379;48.888;8.330;2024-02-28T15:15:11;10.10;60.00
75769;DHT22;64379;48.888;8.330;2024-02-28T15:17:37;10.10;58.90
75769;DHT22;64379;48.888;8.330;2024-02-28T15:20:03;10.10;58.70
75769;DHT22;64379;48.888;8.330;2024-02-28T15:22:29;10.20;58.00
75769;DHT22;64379;48.888;8.330;2024-02-28T15:24:55;10.00;58.90
75769;DHT22;64379;48.888;8.330;2024-02-28T15:27:21;10.10;58.70
75769;DHT22;64379;48.888;8.330;2024-02-28T15:29:47;10.20;59.40
75769;DHT22;64379;48.888;8.330;2024-02-28T15:32:13;10.20;58.90
75769;DHT22;64379;48.888;8.330;2024-02-28T15:34:39;10.00;57.70
75769;DHT22;64379;48.888;8.330;2024-02-28T15:37:05;9.80;59.30
75769;DHT22;64379;48.888;8.330;2024-02-28T15:39:30;9.80;59.60